sensor_id;sensor_type;location;lat;lon;timestamp;P1;durP1;ratioP1;P2;durP2;ratioP2
53261;SDS011;39658;51.090;-1.786;2022-07-29T00:01:07;9.95;;;4.25;;
53261;SDS011;39658;51.090;-1.786;2022-07-29T00:03:34;10.70;;;4.50;;
53261;SDS011;39658;51.090;-1.786;2022-07-29T00:06:01;11.18;;;4.32;;
53261;SDS011;39658;51.090;-1.786;2022-07-29T00:08:28;10.07;;;4.05;;
53261;SDS011;39658;51.090;-1.786;2022-07-29T00:10:54;10.88;;;4.28;;
53261;SDS011;39658;51.090;-1.786;2022-07-29T00:13:21;14.35;;;4.50;;
53261;SDS011;39658;51.090;-1.786;2022-07-29T00:15:49;10.68;;;4.45;;
53261;SDS011;39658;51.090;-1.786;2022-07-29T00:18:16;10.57;;;4.80;;
53261;SDS011;39658;51.090;-1.786;2022-07-29T00:20:43;11.38;;;4.57;;
53261;SDS011;39658;51.090;-1.786;2022-07-29T00:23:09;18.77;;;4.90;;
53261;SDS011;39658;51.090;-1.786;2022-07-29T00:25:36;12.30;;;5.07;;
53261;SDS011;39658;51.090;-1.786;2022-07-29T00:28:03;8.77;;;4.80;;
53261;SDS011;39658;51.090;-1.786;2022-07-29T00:30:30;13.30;;;4.90;;
53261;SDS011;39658;51.090;-1.786;2022-07-29T00:32:58;11.07;;;5.15;;
53261;SDS011;39658;51.090;-1.786;2022-07-29T00:35:25;13.85;;;4.55;;
53261;SDS011;39658;51.090;-1.786;2022-07-29T00:38:06;9.90;;;4.93;;
53261;SDS011;39658;51.090;-1.786;2022-07-29T00:40:32;11.30;;;5.37;;
53261;SDS011;39658;51.090;-1.786;2022-07-29T00:42:59;13.20;;;5.25;;
53261;SDS011;39658;51.090;-1.786;2022-07-29T00:45:26;17.55;;;5.38;;
53261;SDS011;39658;51.090;-1.786;2022-07-29T00:47:54;15.15;;;4.93;;
53261;SDS011;39658;51.090;-1.786;2022-07-29T00:50:23;11.57;;;5.20;;
53261;SDS011;39658;51.090;-1.786;2022-07-29T00:52:50;15.60;;;4.90;;
53261;SDS011;39658;51.090;-1.786;2022-07-29T00:55:18;14.48;;;5.15;;
53261;SDS011;39658;51.090;-1.786;2022-07-29T00:57:45;13.32;;;5.07;;
53261;SDS011;39658;51.090;-1.786;2022-07-29T01:00:13;13.65;;;4.78;;
53261;SDS011;39658;51.090;-1.786;2022-07-29T01:02:42;12.75;;;4.45;;
53261;SDS011;39658;51.090;-1.786;2022-07-29T01:05:09;13.30;;;5.13;;
53261;SDS011;39658;51.090;-1.786;2022-07-29T01:07:39;14.45;;;4.75;;
53261;SDS011;39658;51.090;-1.786;2022-07-29T01:10:07;11.40;;;4.65;;
53261;SDS011;39658;51.090;-1.786;2022-07-29T01:12:36;10.80;;;4.43;;
53261;SDS011;39658;51.090;-1.786;2022-07-29T01:15:05;17.98;;;4.53;;
53261;SDS011;39658;51.090;-1.786;2022-07-29T01:17:36;14.38;;;4.43;;
53261;SDS011;39658;51.090;-1.786;2022-07-29T01:20:09;10.43;;;4.63;;
53261;SDS011;39658;51.090;-1.786;2022-07-29T01:22:51;9.52;;;4.63;;
53261;SDS011;39658;51.090;-1.786;2022-07-29T01:25:34;12.60;;;4.70;;
53261;SDS011;39658;51.090;-1.786;2022-07-29T01:33:50;10.25;;;4.03;;
53261;SDS011;39658;51.090;-1.786;2022-07-29T01:36:23;9.00;;;4.05;;
53261;SDS011;39658;51.090;-1.786;2022-07-29T01:41:25;8.60;;;3.53;;
53261;SDS011;39658;51.090;-1.786;2022-07-29T01:43:57;8.63;;;3.80;;
53261;SDS011;39658;51.090;-1.786;2022-07-29T01:46:27;14.88;;;4.65;;
53261;SDS011;39658;51.090;-1.786;2022-07-29T01:48:59;12.18;;;4.40;;
53261;SDS011;39658;51.090;-1.786;2022-07-29T01:51:32;13.05;;;4.20;;
53261;SDS011;39658;51.090;-1.786;2022-07-29T01:54:04;12.77;;;4.18;;
53261;SDS011;39658;51.090;-1.786;2022-07-29T01:56:34;18.33;;;4.25;;
53261;SDS011;39658;51.090;-1.786;2022-07-29T01:59:06;12.80;;;4.15;;
53261;SDS011;39658;51.090;-1.786;2022-07-29T02:01:36;11.15;;;3.88;;
53261;SDS011;39658;51.090;-1.786;2022-07-29T02:04:06;10.77;;;4.25;;
53261;SDS011;39658;51.090;-1.786;2022-07-29T02:06:37;13.52;;;4.28;;
53261;SDS011;39658;51.090;-1.786;2022-07-29T02:09:06;13.85;;;4.13;;
53261;SDS011;39658;51.090;-1.786;2022-07-29T02:11:35;13.73;;;3.78;;
53261;SDS011;39658;51.090;-1.786;2022-07-29T02:14:05;14.30;;;4.40;;
53261;SDS011;39658;51.090;-1.786;2022-07-29T02:16:34;9.48;;;4.00;;
53261;SDS011;39658;51.090;-1.786;2022-07-29T02:19:04;9.02;;;3.97;;
53261;SDS011;39658;51.090;-1.786;2022-07-29T02:21:33;12.73;;;4.03;;
53261;SDS011;39658;51.090;-1.786;2022-07-29T02:24:01;13.00;;;4.07;;
53261;SDS011;39658;51.090;-1.786;2022-07-29T02:26:30;15.25;;;4.30;;
53261;SDS011;39658;51.090;-1.786;2022-07-29T02:28:59;9.88;;;4.00;;
53261;SDS011;39658;51.090;-1.786;2022-07-29T02:31:30;11.23;;;4.22;;
53261;SDS011;39658;51.090;-1.786;2022-07-29T02:34:00;15.52;;;4.50;;
53261;SDS011;39658;51.090;-1.786;2022-07-29T02:36:29;14.52;;;4.70;;
53261;SDS011;39658;51.090;-1.786;2022-07-29T02:38:57;9.23;;;4.05;;
53261;SDS011;39658;51.090;-1.786;2022-07-29T02:41:27;11.00;;;4.10;;
53261;SDS011;39658;51.090;-1.786;2022-07-29T02:43:56;14.30;;;5.15;;
53261;SDS011;39658;51.090;-1.786;2022-07-29T02:46:26;10.40;;;4.30;;
53261;SDS011;39658;51.090;-1.786;2022-07-29T02:49:00;14.18;;;4.45;;
53261;SDS011;39658;51.090;-1.786;2022-07-29T02:51:33;12.27;;;4.60;;
53261;SDS011;39658;51.090;-1.786;2022-07-29T02:54:09;10.85;;;4.10;;
53261;SDS011;39658;51.090;-1.786;2022-07-29T02:56:40;14.60;;;4.63;;
53261;SDS011;39658;51.090;-1.786;2022-07-29T02:59:10;12.48;;;4.50;;
53261;SDS011;39658;51.090;-1.786;2022-07-29T03:01:40;12.23;;;4.60;;
53261;SDS011;39658;51.090;-1.786;2022-07-29T03:04:11;11.20;;;4.20;;
53261;SDS011;39658;51.090;-1.786;2022-07-29T03:06:40;9.38;;;4.07;;
53261;SDS011;39658;51.090;-1.786;2022-07-29T03:09:10;14.35;;;4.25;;
53261;SDS011;39658;51.090;-1.786;2022-07-29T03:11:38;11.60;;;3.97;;
53261;SDS011;39658;51.090;-1.786;2022-07-29T03:14:05;11.25;;;3.92;;
53261;SDS011;39658;51.090;-1.786;2022-07-29T03:16:32;11.27;;;4.22;;
53261;SDS011;39658;51.090;-1.786;2022-07-29T03:19:01;14.98;;;4.00;;
53261;SDS011;39658;51.090;-1.786;2022-07-29T03:21:31;11.30;;;4.00;;
53261;SDS011;39658;51.090;-1.786;2022-07-29T03:23:58;12.53;;;3.93;;
53261;SDS011;39658;51.090;-1.786;2022-07-29T03:26:25;12.10;;;4.25;;
53261;SDS011;39658;51.090;-1.786;2022-07-29T03:28:51;11.10;;;3.95;;
53261;SDS011;39658;51.090;-1.786;2022-07-29T03:31:18;8.75;;;4.00;;
53261;SDS011;39658;51.090;-1.786;2022-07-29T03:33:45;12.52;;;3.80;;
53261;SDS011;39658;51.090;-1.786;2022-07-29T03:36:12;11.25;;;4.30;;
53261;SDS011;39658;51.090;-1.786;2022-07-29T03:42:01;10.88;;;4.15;;
53261;SDS011;39658;51.090;-1.786;2022-07-29T03:44:33;9.98;;;4.20;;
53261;SDS011;39658;51.090;-1.786;2022-07-29T03:47:01;11.98;;;4.35;;
53261;SDS011;39658;51.090;-1.786;2022-07-29T03:49:30;11.02;;;4.57;;
53261;SDS011;39658;51.090;-1.786;2022-07-29T03:51:58;19.52;;;4.35;;
53261;SDS011;39658;51.090;-1.786;2022-07-29T03:54:26;12.63;;;4.30;;
53261;SDS011;39658;51.090;-1.786;2022-07-29T03:56:53;13.40;;;4.10;;
53261;SDS011;39658;51.090;-1.786;2022-07-29T03:59:23;13.75;;;4.68;;
53261;SDS011;39658;51.090;-1.786;2022-07-29T04:01:50;11.77;;;4.28;;
53261;SDS011;39658;51.090;-1.786;2022-07-29T04:04:18;11.48;;;3.72;;
53261;SDS011;39658;51.090;-1.786;2022-07-29T04:06:45;12.60;;;4.63;;
53261;SDS011;39658;51.090;-1.786;2022-07-29T04:09:12;16.67;;;4.50;;
53261;SDS011;39658;51.090;-1.786;2022-07-29T04:11:40;11.45;;;4.40;;
53261;SDS011;39658;51.090;-1.786;2022-07-29T04:14:07;9.27;;;3.90;;
53261;SDS011;39658;51.090;-1.786;2022-07-29T04:16:35;11.73;;;3.80;;
53261;SDS011;39658;51.090;-1.786;2022-07-29T04:19:02;10.30;;;3.95;;
53261;SDS011;39658;51.090;-1.786;2022-07-29T04:21:29;10.80;;;3.92;;
53261;SDS011;39658;51.090;-1.786;2022-07-29T04:23:56;10.27;;;3.67;;
53261;SDS011;39658;51.090;-1.786;2022-07-29T04:26:22;13.52;;;3.38;;
53261;SDS011;39658;51.090;-1.786;2022-07-29T04:28:49;13.15;;;4.18;;
53261;SDS011;39658;51.090;-1.786;2022-07-29T04:31:16;8.82;;;3.72;;
53261;SDS011;39658;51.090;-1.786;2022-07-29T04:33:44;15.15;;;3.95;;
53261;SDS011;39658;51.090;-1.786;2022-07-29T04:36:11;11.35;;;4.22;;
53261;SDS011;39658;51.090;-1.786;2022-07-29T04:38:38;12.13;;;4.15;;
53261;SDS011;39658;51.090;-1.786;2022-07-29T04:41:04;11.45;;;4.00;;
53261;SDS011;39658;51.090;-1.786;2022-07-29T04:43:33;11.43;;;4.10;;
53261;SDS011;39658;51.090;-1.786;2022-07-29T04:46:00;16.40;;;4.10;;
53261;SDS011;39658;51.090;-1.786;2022-07-29T04:48:27;13.15;;;4.00;;
53261;SDS011;39658;51.090;-1.786;2022-07-29T04:50:55;14.20;;;4.45;;
53261;SDS011;39658;51.090;-1.786;2022-07-29T04:53:22;10.57;;;3.83;;
53261;SDS011;39658;51.090;-1.786;2022-07-29T04:55:49;11.73;;;4.40;;
53261;SDS011;39658;51.090;-1.786;2022-07-29T04:58:15;16.00;;;3.72;;
53261;SDS011;39658;51.090;-1.786;2022-07-29T05:00:42;10.05;;;3.47;;
53261;SDS011;39658;51.090;-1.786;2022-07-29T05:03:09;10.13;;;4.07;;
53261;SDS011;39658;51.090;-1.786;2022-07-29T05:05:36;11.73;;;3.65;;
53261;SDS011;39658;51.090;-1.786;2022-07-29T05:08:04;13.95;;;3.63;;
53261;SDS011;39658;51.090;-1.786;2022-07-29T05:10:31;11.15;;;3.50;;
53261;SDS011;39658;51.090;-1.786;2022-07-29T05:12:59;10.15;;;3.50;;
53261;SDS011;39658;51.090;-1.786;2022-07-29T05:15:25;8.43;;;2.83;;
53261;SDS011;39658;51.090;-1.786;2022-07-29T05:17:52;11.90;;;3.78;;
53261;SDS011;39658;51.090;-1.786;2022-07-29T05:20:19;14.15;;;3.85;;
53261;SDS011;39658;51.090;-1.786;2022-07-29T05:22:51;11.10;;;3.90;;
53261;SDS011;39658;51.090;-1.786;2022-07-29T05:25:19;12.07;;;3.78;;
53261;SDS011;39658;51.090;-1.786;2022-07-29T05:27:46;9.85;;;3.88;;
53261;SDS011;39658;51.090;-1.786;2022-07-29T05:30:13;10.07;;;3.40;;
53261;SDS011;39658;51.090;-1.786;2022-07-29T05:32:39;12.23;;;3.78;;
53261;SDS011;39658;51.090;-1.786;2022-07-29T05:35:06;9.73;;;3.30;;
53261;SDS011;39658;51.090;-1.786;2022-07-29T05:37:34;11.52;;;3.50;;
53261;SDS011;39658;51.090;-1.786;2022-07-29T05:40:01;9.00;;;3.30;;
53261;SDS011;39658;51.090;-1.786;2022-07-29T05:42:29;10.82;;;3.65;;
53261;SDS011;39658;51.090;-1.786;2022-07-29T05:44:56;7.93;;;3.03;;
53261;SDS011;39658;51.090;-1.786;2022-07-29T05:47:23;8.33;;;3.03;;
53261;SDS011;39658;51.090;-1.786;2022-07-29T05:49:49;9.93;;;3.23;;
53261;SDS011;39658;51.090;-1.786;2022-07-29T05:52:16;8.98;;;3.28;;
53261;SDS011;39658;51.090;-1.786;2022-07-29T05:54:43;10.90;;;3.70;;
53261;SDS011;39658;51.090;-1.786;2022-07-29T05:57:14;12.88;;;3.60;;
53261;SDS011;39658;51.090;-1.786;2022-07-29T05:59:43;12.50;;;3.30;;
53261;SDS011;39658;51.090;-1.786;2022-07-29T06:02:10;16.35;;;2.92;;
53261;SDS011;39658;51.090;-1.786;2022-07-29T06:04:37;10.18;;;3.05;;
53261;SDS011;39658;51.090;-1.786;2022-07-29T06:07:04;10.43;;;3.03;;
53261;SDS011;39658;51.090;-1.786;2022-07-29T06:09:31;11.02;;;3.20;;
53261;SDS011;39658;51.090;-1.786;2022-07-29T06:11:58;11.52;;;2.92;;
53261;SDS011;39658;51.090;-1.786;2022-07-29T06:14:25;19.52;;;3.33;;
53261;SDS011;39658;51.090;-1.786;2022-07-29T06:16:54;8.43;;;3.10;;
53261;SDS011;39658;51.090;-1.786;2022-07-29T06:19:21;10.82;;;3.15;;
53261;SDS011;39658;51.090;-1.786;2022-07-29T06:21:48;10.77;;;2.75;;
53261;SDS011;39658;51.090;-1.786;2022-07-29T06:24:15;14.52;;;3.28;;
53261;SDS011;39658;51.090;-1.786;2022-07-29T06:26:42;11.95;;;2.97;;
53261;SDS011;39658;51.090;-1.786;2022-07-29T06:29:09;10.85;;;2.85;;
53261;SDS011;39658;51.090;-1.786;2022-07-29T06:31:36;12.05;;;2.80;;
53261;SDS011;39658;51.090;-1.786;2022-07-29T06:34:05;12.27;;;2.83;;
53261;SDS011;39658;51.090;-1.786;2022-07-29T06:36:34;8.68;;;2.60;;
53261;SDS011;39658;51.090;-1.786;2022-07-29T06:39:01;10.38;;;2.70;;
53261;SDS011;39658;51.090;-1.786;2022-07-29T06:41:29;9.60;;;2.65;;
53261;SDS011;39658;51.090;-1.786;2022-07-29T06:43:56;9.10;;;2.42;;
53261;SDS011;39658;51.090;-1.786;2022-07-29T06:46:22;9.90;;;2.40;;
53261;SDS011;39658;51.090;-1.786;2022-07-29T06:48:49;12.27;;;3.10;;
53261;SDS011;39658;51.090;-1.786;2022-07-29T06:51:18;7.28;;;2.40;;
53261;SDS011;39658;51.090;-1.786;2022-07-29T06:53:45;8.63;;;2.63;;
53261;SDS011;39658;51.090;-1.786;2022-07-29T06:56:12;10.88;;;3.28;;
53261;SDS011;39658;51.090;-1.786;2022-07-29T06:58:39;9.95;;;2.45;;
53261;SDS011;39658;51.090;-1.786;2022-07-29T07:01:06;13.10;;;3.03;;
53261;SDS011;39658;51.090;-1.786;2022-07-29T07:03:32;10.00;;;2.58;;
53261;SDS011;39658;51.090;-1.786;2022-07-29T07:05:59;8.50;;;2.58;;
53261;SDS011;39658;51.090;-1.786;2022-07-29T07:08:27;9.63;;;2.78;;
53261;SDS011;39658;51.090;-1.786;2022-07-29T07:10:54;9.18;;;2.70;;
53261;SDS011;39658;51.090;-1.786;2022-07-29T07:13:22;11.52;;;2.72;;
53261;SDS011;39658;51.090;-1.786;2022-07-29T07:15:48;12.20;;;2.70;;
53261;SDS011;39658;51.090;-1.786;2022-07-29T07:18:17;12.07;;;3.00;;
53261;SDS011;39658;51.090;-1.786;2022-07-29T07:20:44;9.55;;;2.67;;
53261;SDS011;39658;51.090;-1.786;2022-07-29T07:23:12;9.48;;;2.42;;
53261;SDS011;39658;51.090;-1.786;2022-07-29T07:25:40;11.35;;;3.08;;
53261;SDS011;39658;51.090;-1.786;2022-07-29T07:28:08;9.48;;;2.33;;
53261;SDS011;39658;51.090;-1.786;2022-07-29T07:30:35;10.40;;;2.85;;
53261;SDS011;39658;51.090;-1.786;2022-07-29T07:33:01;9.98;;;2.67;;
53261;SDS011;39658;51.090;-1.786;2022-07-29T07:35:29;7.05;;;2.40;;
53261;SDS011;39658;51.090;-1.786;2022-07-29T07:37:56;8.80;;;2.70;;
53261;SDS011;39658;51.090;-1.786;2022-07-29T07:40:24;9.88;;;2.80;;
53261;SDS011;39658;51.090;-1.786;2022-07-29T07:42:52;9.35;;;2.80;;
53261;SDS011;39658;51.090;-1.786;2022-07-29T07:45:19;8.35;;;2.70;;
53261;SDS011;39658;51.090;-1.786;2022-07-29T07:47:46;10.43;;;2.85;;
53261;SDS011;39658;51.090;-1.786;2022-07-29T07:50:13;9.88;;;2.78;;
53261;SDS011;39658;51.090;-1.786;2022-07-29T07:52:46;8.93;;;2.80;;
53261;SDS011;39658;51.090;-1.786;2022-07-29T07:55:15;9.98;;;2.80;;
53261;SDS011;39658;51.090;-1.786;2022-07-29T07:57:42;9.90;;;2.70;;
53261;SDS011;39658;51.090;-1.786;2022-07-29T08:00:11;10.07;;;2.75;;
53261;SDS011;39658;51.090;-1.786;2022-07-29T08:02:38;8.20;;;2.30;;
53261;SDS011;39658;51.090;-1.786;2022-07-29T08:05:08;13.93;;;2.78;;
53261;SDS011;39658;51.090;-1.786;2022-07-29T08:07:35;8.47;;;2.50;;
53261;SDS011;39658;51.090;-1.786;2022-07-29T08:10:02;7.63;;;2.88;;
53261;SDS011;39658;51.090;-1.786;2022-07-29T08:12:30;8.75;;;2.92;;
53261;SDS011;39658;51.090;-1.786;2022-07-29T08:14:56;9.82;;;2.83;;
53261;SDS011;39658;51.090;-1.786;2022-07-29T08:17:24;11.27;;;3.00;;
53261;SDS011;39658;51.090;-1.786;2022-07-29T08:19:51;7.78;;;2.58;;
53261;SDS011;39658;51.090;-1.786;2022-07-29T08:22:18;8.65;;;2.70;;
53261;SDS011;39658;51.090;-1.786;2022-07-29T08:24:45;12.10;;;2.95;;
53261;SDS011;39658;51.090;-1.786;2022-07-29T08:27:17;12.48;;;2.70;;
53261;SDS011;39658;51.090;-1.786;2022-07-29T08:29:44;8.27;;;2.55;;
53261;SDS011;39658;51.090;-1.786;2022-07-29T08:32:11;9.88;;;2.80;;
53261;SDS011;39658;51.090;-1.786;2022-07-29T08:34:39;7.32;;;2.60;;
53261;SDS011;39658;51.090;-1.786;2022-07-29T08:37:06;8.40;;;2.28;;
53261;SDS011;39658;51.090;-1.786;2022-07-29T08:39:33;11.27;;;2.45;;
53261;SDS011;39658;51.090;-1.786;2022-07-29T08:41:59;9.43;;;2.42;;
53261;SDS011;39658;51.090;-1.786;2022-07-29T08:44:26;6.95;;;2.05;;
53261;SDS011;39658;51.090;-1.786;2022-07-29T08:46:53;5.85;;;1.98;;
53261;SDS011;39658;51.090;-1.786;2022-07-29T08:49:20;7.13;;;2.08;;
53261;SDS011;39658;51.090;-1.786;2022-07-29T08:51:48;8.50;;;1.77;;
53261;SDS011;39658;51.090;-1.786;2022-07-29T08:54:16;5.78;;;1.90;;
53261;SDS011;39658;51.090;-1.786;2022-07-29T08:56:43;5.10;;;1.60;;
53261;SDS011;39658;51.090;-1.786;2022-07-29T08:59:14;10.50;;;1.95;;
53261;SDS011;39658;51.090;-1.786;2022-07-29T09:01:42;5.78;;;1.70;;
53261;SDS011;39658;51.090;-1.786;2022-07-29T09:04:11;5.63;;;2.10;;
53261;SDS011;39658;51.090;-1.786;2022-07-29T09:06:42;6.13;;;1.80;;
53261;SDS011;39658;51.090;-1.786;2022-07-29T09:09:12;7.55;;;1.80;;
53261;SDS011;39658;51.090;-1.786;2022-07-29T09:11:39;4.97;;;1.40;;
53261;SDS011;39658;51.090;-1.786;2022-07-29T09:14:07;4.63;;;1.87;;
53261;SDS011;39658;51.090;-1.786;2022-07-29T09:16:47;5.97;;;1.80;;
53261;SDS011;39658;51.090;-1.786;2022-07-29T09:19:26;3.72;;;1.42;;
53261;SDS011;39658;51.090;-1.786;2022-07-29T09:21:56;6.13;;;1.60;;
53261;SDS011;39658;51.090;-1.786;2022-07-29T09:24:24;6.53;;;1.20;;
53261;SDS011;39658;51.090;-1.786;2022-07-29T09:26:52;4.27;;;1.47;;
53261;SDS011;39658;51.090;-1.786;2022-07-29T09:29:19;3.73;;;1.20;;
53261;SDS011;39658;51.090;-1.786;2022-07-29T09:31:48;6.57;;;1.35;;
53261;SDS011;39658;51.090;-1.786;2022-07-29T09:34:17;3.42;;;1.48;;
53261;SDS011;39658;51.090;-1.786;2022-07-29T09:36:49;5.40;;;1.55;;
53261;SDS011;39658;51.090;-1.786;2022-07-29T09:39:26;6.50;;;1.83;;
53261;SDS011;39658;51.090;-1.786;2022-07-29T09:41:56;5.07;;;1.40;;
53261;SDS011;39658;51.090;-1.786;2022-07-29T09:44:24;4.40;;;1.50;;
53261;SDS011;39658;51.090;-1.786;2022-07-29T09:47:01;5.72;;;1.70;;
53261;SDS011;39658;51.090;-1.786;2022-07-29T09:49:31;3.25;;;1.25;;
53261;SDS011;39658;51.090;-1.786;2022-07-29T09:51:58;4.88;;;1.55;;
53261;SDS011;39658;51.090;-1.786;2022-07-29T09:54:37;4.85;;;1.55;;
53261;SDS011;39658;51.090;-1.786;2022-07-29T09:57:04;5.88;;;1.40;;
53261;SDS011;39658;51.090;-1.786;2022-07-29T09:59:32;5.72;;;1.55;;
53261;SDS011;39658;51.090;-1.786;2022-07-29T10:01:59;5.18;;;1.33;;
53261;SDS011;39658;51.090;-1.786;2022-07-29T10:04:39;3.92;;;1.33;;
53261;SDS011;39658;51.090;-1.786;2022-07-29T10:07:06;3.33;;;1.10;;
53261;SDS011;39658;51.090;-1.786;2022-07-29T10:09:33;6.05;;;1.65;;
53261;SDS011;39658;51.090;-1.786;2022-07-29T10:12:10;5.82;;;1.42;;
53261;SDS011;39658;51.090;-1.786;2022-07-29T10:14:39;5.68;;;1.55;;
53261;SDS011;39658;51.090;-1.786;2022-07-29T10:17:06;7.40;;;1.75;;
53261;SDS011;39658;51.090;-1.786;2022-07-29T10:19:35;5.10;;;1.50;;
53261;SDS011;39658;51.090;-1.786;2022-07-29T10:22:04;6.22;;;1.50;;
53261;SDS011;39658;51.090;-1.786;2022-07-29T10:24:32;6.38;;;1.50;;
53261;SDS011;39658;51.090;-1.786;2022-07-29T10:26:59;4.97;;;1.63;;
53261;SDS011;39658;51.090;-1.786;2022-07-29T10:29:30;6.97;;;1.77;;
53261;SDS011;39658;51.090;-1.786;2022-07-29T10:32:02;5.65;;;1.63;;
53261;SDS011;39658;51.090;-1.786;2022-07-29T10:34:57;5.70;;;1.60;;
53261;SDS011;39658;51.090;-1.786;2022-07-29T10:37:37;4.13;;;1.40;;
53261;SDS011;39658;51.090;-1.786;2022-07-29T10:40:22;3.70;;;1.30;;
53261;SDS011;39658;51.090;-1.786;2022-07-29T10:45:45;4.85;;;1.67;;
53261;SDS011;39658;51.090;-1.786;2022-07-29T10:48:14;3.78;;;1.30;;
53261;SDS011;39658;51.090;-1.786;2022-07-29T10:50:54;3.05;;;1.33;;
53261;SDS011;39658;51.090;-1.786;2022-07-29T10:53:22;4.65;;;1.50;;
53261;SDS011;39658;51.090;-1.786;2022-07-29T10:55:50;5.60;;;1.50;;
53261;SDS011;39658;51.090;-1.786;2022-07-29T10:58:18;4.55;;;1.30;;
53261;SDS011;39658;51.090;-1.786;2022-07-29T11:00:48;4.82;;;1.38;;
53261;SDS011;39658;51.090;-1.786;2022-07-29T11:06:11;5.50;;;1.52;;
53261;SDS011;39658;51.090;-1.786;2022-07-29T11:08:38;6.20;;;1.63;;
53261;SDS011;39658;51.090;-1.786;2022-07-29T11:14:05;5.43;;;2.20;;
53261;SDS011;39658;51.090;-1.786;2022-07-29T11:19:27;4.55;;;1.30;;
53261;SDS011;39658;51.090;-1.786;2022-07-29T11:21:54;6.72;;;1.85;;
53261;SDS011;39658;51.090;-1.786;2022-07-29T11:24:22;5.05;;;1.55;;
53261;SDS011;39658;51.090;-1.786;2022-07-29T11:27:09;8.83;;;1.63;;
53261;SDS011;39658;51.090;-1.786;2022-07-29T11:29:38;3.75;;;1.38;;
53261;SDS011;39658;51.090;-1.786;2022-07-29T11:32:11;3.72;;;1.42;;
53261;SDS011;39658;51.090;-1.786;2022-07-29T11:34:41;2.92;;;1.20;;
53261;SDS011;39658;51.090;-1.786;2022-07-29T11:37:18;5.22;;;1.50;;
53261;SDS011;39658;51.090;-1.786;2022-07-29T11:39:47;5.45;;;1.60;;
53261;SDS011;39658;51.090;-1.786;2022-07-29T11:45:24;4.43;;;1.40;;
53261;SDS011;39658;51.090;-1.786;2022-07-29T11:47:59;4.78;;;1.52;;
53261;SDS011;39658;51.090;-1.786;2022-07-29T11:50:27;3.88;;;1.27;;
53261;SDS011;39658;51.090;-1.786;2022-07-29T11:55:26;3.65;;;1.15;;
53261;SDS011;39658;51.090;-1.786;2022-07-29T11:57:53;3.95;;;1.30;;
53261;SDS011;39658;51.090;-1.786;2022-07-29T12:00:29;6.60;;;1.40;;
53261;SDS011;39658;51.090;-1.786;2022-07-29T12:03:00;3.45;;;1.20;;
53261;SDS011;39658;51.090;-1.786;2022-07-29T12:05:37;4.80;;;1.42;;
53261;SDS011;39658;51.090;-1.786;2022-07-29T12:08:12;9.88;;;1.40;;
53261;SDS011;39658;51.090;-1.786;2022-07-29T12:10:41;4.95;;;1.33;;
53261;SDS011;39658;51.090;-1.786;2022-07-29T12:13:11;6.88;;;1.50;;
53261;SDS011;39658;51.090;-1.786;2022-07-29T12:15:38;13.13;;;1.20;;
53261;SDS011;39658;51.090;-1.786;2022-07-29T12:18:10;6.13;;;1.65;;
53261;SDS011;39658;51.090;-1.786;2022-07-29T12:20:39;3.70;;;1.40;;
53261;SDS011;39658;51.090;-1.786;2022-07-29T12:23:06;7.20;;;1.40;;
53261;SDS011;39658;51.090;-1.786;2022-07-29T12:25:37;9.05;;;1.50;;
53261;SDS011;39658;51.090;-1.786;2022-07-29T12:28:05;4.88;;;1.50;;
53261;SDS011;39658;51.090;-1.786;2022-07-29T12:30:37;6.93;;;1.48;;
53261;SDS011;39658;51.090;-1.786;2022-07-29T12:33:16;6.97;;;1.40;;
53261;SDS011;39658;51.090;-1.786;2022-07-29T12:35:46;7.38;;;2.00;;
53261;SDS011;39658;51.090;-1.786;2022-07-29T12:38:14;3.75;;;1.50;;
53261;SDS011;39658;51.090;-1.786;2022-07-29T12:40:42;4.63;;;1.50;;
53261;SDS011;39658;51.090;-1.786;2022-07-29T12:43:10;4.78;;;1.42;;
53261;SDS011;39658;51.090;-1.786;2022-07-29T12:45:39;5.28;;;1.80;;
53261;SDS011;39658;51.090;-1.786;2022-07-29T12:48:08;3.25;;;1.17;;
53261;SDS011;39658;51.090;-1.786;2022-07-29T12:50:37;4.93;;;1.50;;
53261;SDS011;39658;51.090;-1.786;2022-07-29T12:53:18;3.70;;;1.33;;
53261;SDS011;39658;51.090;-1.786;2022-07-29T12:55:46;5.80;;;1.58;;
53261;SDS011;39658;51.090;-1.786;2022-07-29T12:58:25;4.70;;;1.60;;
53261;SDS011;39658;51.090;-1.786;2022-07-29T13:01:03;3.47;;;1.30;;
53261;SDS011;39658;51.090;-1.786;2022-07-29T13:03:48;4.18;;;1.58;;
53261;SDS011;39658;51.090;-1.786;2022-07-29T13:06:32;6.80;;;1.60;;
53261;SDS011;39658;51.090;-1.786;2022-07-29T13:09:06;3.80;;;1.40;;
53261;SDS011;39658;51.090;-1.786;2022-07-29T13:11:35;4.53;;;1.48;;
53261;SDS011;39658;51.090;-1.786;2022-07-29T13:14:03;7.90;;;1.80;;
53261;SDS011;39658;51.090;-1.786;2022-07-29T13:16:30;4.40;;;1.38;;
53261;SDS011;39658;51.090;-1.786;2022-07-29T13:19:08;4.30;;;1.50;;
53261;SDS011;39658;51.090;-1.786;2022-07-29T13:21:38;3.88;;;1.42;;
53261;SDS011;39658;51.090;-1.786;2022-07-29T13:24:06;8.50;;;1.27;;
53261;SDS011;39658;51.090;-1.786;2022-07-29T13:26:33;4.07;;;1.50;;
53261;SDS011;39658;51.090;-1.786;2022-07-29T13:29:01;5.63;;;1.73;;
53261;SDS011;39658;51.090;-1.786;2022-07-29T13:31:28;4.80;;;1.88;;
53261;SDS011;39658;51.090;-1.786;2022-07-29T13:33:55;7.80;;;1.50;;
53261;SDS011;39658;51.090;-1.786;2022-07-29T13:36:22;5.05;;;1.55;;
53261;SDS011;39658;51.090;-1.786;2022-07-29T13:38:50;6.32;;;1.67;;
53261;SDS011;39658;51.090;-1.786;2022-07-29T13:41:17;7.95;;;1.48;;
53261;SDS011;39658;51.090;-1.786;2022-07-29T13:43:44;3.13;;;1.27;;
53261;SDS011;39658;51.090;-1.786;2022-07-29T13:46:11;6.55;;;1.80;;
53261;SDS011;39658;51.090;-1.786;2022-07-29T13:48:37;5.63;;;1.73;;
53261;SDS011;39658;51.090;-1.786;2022-07-29T13:51:04;5.45;;;1.50;;
53261;SDS011;39658;51.090;-1.786;2022-07-29T13:53:31;5.60;;;1.40;;
53261;SDS011;39658;51.090;-1.786;2022-07-29T13:55:59;4.85;;;1.30;;
53261;SDS011;39658;51.090;-1.786;2022-07-29T13:58:26;5.47;;;1.67;;
53261;SDS011;39658;51.090;-1.786;2022-07-29T14:00:52;3.67;;;1.48;;
53261;SDS011;39658;51.090;-1.786;2022-07-29T14:03:19;4.78;;;1.60;;
53261;SDS011;39658;51.090;-1.786;2022-07-29T14:05:46;6.82;;;1.27;;
53261;SDS011;39658;51.090;-1.786;2022-07-29T14:08:13;4.72;;;1.50;;
53261;SDS011;39658;51.090;-1.786;2022-07-29T14:10:40;6.05;;;1.70;;
53261;SDS011;39658;51.090;-1.786;2022-07-29T14:13:08;5.10;;;1.50;;
53261;SDS011;39658;51.090;-1.786;2022-07-29T14:15:35;5.05;;;1.60;;
53261;SDS011;39658;51.090;-1.786;2022-07-29T14:18:01;4.32;;;1.65;;
53261;SDS011;39658;51.090;-1.786;2022-07-29T14:20:28;10.63;;;1.70;;
53261;SDS011;39658;51.090;-1.786;2022-07-29T14:22:55;5.50;;;1.90;;
53261;SDS011;39658;51.090;-1.786;2022-07-29T14:25:22;4.63;;;1.60;;
53261;SDS011;39658;51.090;-1.786;2022-07-29T14:27:49;9.15;;;1.75;;
53261;SDS011;39658;51.090;-1.786;2022-07-29T14:30:19;3.97;;;1.30;;
53261;SDS011;39658;51.090;-1.786;2022-07-29T14:32:47;3.95;;;1.52;;
53261;SDS011;39658;51.090;-1.786;2022-07-29T14:35:13;6.25;;;2.13;;
53261;SDS011;39658;51.090;-1.786;2022-07-29T14:37:40;11.07;;;1.88;;
53261;SDS011;39658;51.090;-1.786;2022-07-29T14:40:08;5.60;;;1.60;;
53261;SDS011;39658;51.090;-1.786;2022-07-29T14:42:35;4.80;;;1.60;;
53261;SDS011;39658;51.090;-1.786;2022-07-29T14:45:02;6.78;;;1.48;;
53261;SDS011;39658;51.090;-1.786;2022-07-29T14:47:32;7.35;;;2.08;;
53261;SDS011;39658;51.090;-1.786;2022-07-29T14:49:58;7.95;;;1.77;;
53261;SDS011;39658;51.090;-1.786;2022-07-29T14:52:25;5.80;;;1.92;;
53261;SDS011;39658;51.090;-1.786;2022-07-29T14:54:52;6.93;;;1.70;;
53261;SDS011;39658;51.090;-1.786;2022-07-29T14:57:19;9.00;;;1.92;;
53261;SDS011;39658;51.090;-1.786;2022-07-29T14:59:45;7.32;;;2.00;;
53261;SDS011;39658;51.090;-1.786;2022-07-29T15:02:12;7.83;;;2.20;;
53261;SDS011;39658;51.090;-1.786;2022-07-29T15:04:40;8.05;;;1.83;;
53261;SDS011;39658;51.090;-1.786;2022-07-29T15:07:07;9.18;;;2.13;;